Quebec

Airport
ICAO code: 
CYQB
Summary
ICAO Region: 
NAM
Territory: 
Location: 
Quebec City, Quebec,
Coordinates: 
Aerial View: 
46° 47' 27.96" N, 71° 23' 35.891" W
Metar
Observation
CYQB 271900Z 26016G22KT 20SM -SN DRSN BKN032 OVC055 M04/M09 A2951 RMK SC7SC1 SLP000
Station
Quebec, Que
Date/Time
2021-11-27 19:00:00
Wind direction
260°
Wind speed
16 kts
Lowest cloud amount
broken clouds
Temperature
-4°C
Dew point
-9°C
Humidity
68%
Weather condition
light drifting

Description

Québec City Jean Lesage International Airport, also known as Jean Lesage International Airport is located 6 nm west southwest of Quebec City, Quebec, Canada.

Climatology

Humid Continental climate (Köppen climate classification Dfb) - Variable weather patterns and a large seasonal temperature variance. Summers are often warm and humid with frequent thunderstorms and winters can be very cold with frequent snowfall and persistent snow cover.

Runways

Designator Length Width Surface Rops
12/30 1737 46 ASP Yes/Yes
6/24 2743 46 ASP Yes/Yes
Airport map: 
Aerial View: 

Accidents and Serious Incidents at or in the vicinity of CYQB

SKYbrary Partners:

Safety knowledge contributed by: